WZZ2DM LHBP-LRTM
Flight info
| Callsign | WZZ2DM |
|---|---|
| Flight time | 0h 46m |
| Altitude | 29000 |
| Route | VETIK DCT NARKA DCT ATSOS |
| Aircraft | A321/M-SDE3FGHIRWY/LB1 |
Departure
| Time | 2026-05-06 14:26 |
|---|---|
| Airport | Budapest Liszt Ferenc International Airport (LHBP) |
Arrival
| Time | 2026-05-06 15:13 |
|---|---|
| Airport | Târgu Mureş Transilvania International Airport (LRTM) |
| Time | Latitude | Longitude | Altitude | Speed | Heading |
|---|---|---|---|---|---|
| 2026-05-06 14:16 | 47.43478 | 19.26531 | 457 ft | 0 kts | 222° |
| 2026-05-06 14:16 | 47.43483 | 19.26539 | 457 ft | 4 kts | 222° |
| 2026-05-06 14:16 | 47.43500 | 19.26561 | 456 ft | 4 kts | 241° |
| 2026-05-06 14:17 | 47.43503 | 19.26594 | 453 ft | 4 kts | 291° |
| 2026-05-06 14:17 | 47.43491 | 19.26629 | 455 ft | 4 kts | 307° |
| 2026-05-06 14:17 | 47.43475 | 19.26657 | 453 ft | 2 kts | 312° |
| 2026-05-06 14:17 | 47.43474 | 19.26659 | 453 ft | 0 kts | 312° |
| 2026-05-06 14:19 | 47.43478 | 19.26653 | 453 ft | 4 kts | 312° |
| 2026-05-06 14:19 | 47.43503 | 19.26612 | 453 ft | 6 kts | 312° |
| 2026-05-06 14:20 | 47.43539 | 19.26554 | 457 ft | 8 kts | 312° |
| 2026-05-06 14:20 | 47.43580 | 19.26487 | 457 ft | 9 kts | 313° |
| 2026-05-06 14:20 | 47.43626 | 19.26414 | 457 ft | 10 kts | 313° |
| 2026-05-06 14:20 | 47.43680 | 19.26346 | 457 ft | 10 kts | 343° |
| 2026-05-06 14:21 | 47.43731 | 19.26390 | 457 ft | 9 kts | 46° |
| 2026-05-06 14:21 | 47.43787 | 19.26410 | 458 ft | 9 kts | 340° |
| 2026-05-06 14:21 | 47.43834 | 19.26347 | 458 ft | 9 kts | 314° |
| 2026-05-06 14:21 | 47.43881 | 19.26274 | 458 ft | 10 kts | 311° |
| 2026-05-06 14:22 | 47.43928 | 19.26197 | 458 ft | 0 kts | 312° |
| 2026-05-06 14:22 | 47.43942 | 19.26173 | 457 ft | 8 kts | 311° |
| 2026-05-06 14:23 | 47.43991 | 19.26092 | 458 ft | 13 kts | 311° |
| 2026-05-06 14:23 | 47.44058 | 19.25983 | 458 ft | 15 kts | 313° |
| 2026-05-06 14:23 | 47.44128 | 19.25870 | 458 ft | 15 kts | 312° |
| 2026-05-06 14:23 | 47.44201 | 19.25753 | 458 ft | 16 kts | 313° |
| 2026-05-06 14:24 | 47.44276 | 19.25633 | 458 ft | 16 kts | 314° |
| 2026-05-06 14:24 | 47.44373 | 19.25557 | 459 ft | 16 kts | 354° |
| 2026-05-06 14:24 | 47.44468 | 19.25610 | 461 ft | 13 kts | 41° |
| 2026-05-06 14:24 | 47.44501 | 19.25683 | 469 ft | 5 kts | 69° |
| 2026-05-06 14:25 | 47.44507 | 19.25730 | 476 ft | 6 kts | 83° |
| 2026-05-06 14:25 | 47.44498 | 19.25832 | 476 ft | 13 kts | 124° |
| 2026-05-06 14:25 | 47.44488 | 19.25849 | 469 ft | 1 kts | 131° |
| 2026-05-06 14:25 | 47.44388 | 19.26009 | 474 ft | 54 kts | 133° |
| 2026-05-06 14:26 | 47.43979 | 19.26667 | 468 ft | 118 kts | 131° |
| 2026-05-06 14:26 | 47.43307 | 19.27744 | 467 ft | 166 kts | 130° |
| 2026-05-06 14:26 | 47.42482 | 19.29082 | 835 ft | 178 kts | 139° |
| 2026-05-06 14:26 | 47.41736 | 19.30588 | 1466 ft | 185 kts | 126° |
| 2026-05-06 14:27 | 47.41068 | 19.32226 | 2102 ft | 187 kts | 127° |
| 2026-05-06 14:27 | 47.40443 | 19.33944 | 2682 ft | 196 kts | 117° |
| 2026-05-06 14:27 | 47.40139 | 19.35967 | 3069 ft | 210 kts | 100° |
| 2026-05-06 14:27 | 47.40099 | 19.38220 | 3217 ft | 230 kts | 93° |
| 2026-05-06 14:28 | 47.40081 | 19.40723 | 3314 ft | 253 kts | 95° |
| 2026-05-06 14:28 | 47.40000 | 19.43443 | 3631 ft | 272 kts | 96° |
| 2026-05-06 14:28 | 47.39883 | 19.46262 | 4302 ft | 277 kts | 97° |
| 2026-05-06 14:28 | 47.39743 | 19.49113 | 5011 ft | 280 kts | 98° |
| 2026-05-06 14:29 | 47.39586 | 19.51994 | 5718 ft | 283 kts | 98° |
| 2026-05-06 14:29 | 47.39419 | 19.54899 | 6444 ft | 286 kts | 98° |
| 2026-05-06 14:29 | 47.39248 | 19.57838 | 7102 ft | 289 kts | 98° |
| 2026-05-06 14:29 | 47.39074 | 19.60805 | 7775 ft | 292 kts | 98° |
| 2026-05-06 14:30 | 47.38899 | 19.63817 | 8440 ft | 296 kts | 98° |
| 2026-05-06 14:30 | 47.38721 | 19.66874 | 8886 ft | 300 kts | 97° |
| 2026-05-06 14:30 | 47.38543 | 19.69942 | 8978 ft | 301 kts | 98° |
| 2026-05-06 14:30 | 47.38362 | 19.73013 | 8999 ft | 300 kts | 98° |
| 2026-05-06 14:31 | 47.38180 | 19.76085 | 8994 ft | 300 kts | 98° |
| 2026-05-06 14:31 | 47.37998 | 19.79147 | 8995 ft | 300 kts | 98° |
| 2026-05-06 14:31 | 47.37814 | 19.82219 | 8996 ft | 300 kts | 98° |
| 2026-05-06 14:31 | 47.37630 | 19.85283 | 8995 ft | 300 kts | 98° |
| 2026-05-06 14:32 | 47.37445 | 19.88351 | 8999 ft | 300 kts | 97° |
| 2026-05-06 14:32 | 47.37257 | 19.91415 | 8999 ft | 300 kts | 98° |
| 2026-05-06 14:32 | 47.37066 | 19.94486 | 8998 ft | 300 kts | 98° |
| 2026-05-06 14:32 | 47.36877 | 19.97543 | 9000 ft | 300 kts | 98° |
| 2026-05-06 14:33 | 47.36688 | 20.00611 | 8998 ft | 300 kts | 98° |
| 2026-05-06 14:33 | 47.36502 | 20.03677 | 9002 ft | 300 kts | 97° |
| 2026-05-06 14:33 | 47.36316 | 20.06738 | 9000 ft | 300 kts | 97° |
| 2026-05-06 14:33 | 47.36127 | 20.09804 | 8998 ft | 300 kts | 98° |
| 2026-05-06 14:34 | 47.35935 | 20.12868 | 9001 ft | 300 kts | 98° |
| 2026-05-06 14:34 | 47.35741 | 20.15935 | 9004 ft | 300 kts | 98° |
| 2026-05-06 14:34 | 47.35546 | 20.19000 | 9003 ft | 301 kts | 97° |
| 2026-05-06 14:34 | 47.35415 | 20.21075 | 9004 ft | 300 kts | 98° |
| 2026-05-06 14:35 | 47.35219 | 20.24141 | 9002 ft | 300 kts | 98° |
| 2026-05-06 14:35 | 47.35015 | 20.27205 | 9000 ft | 301 kts | 98° |
| 2026-05-06 14:35 | 47.34806 | 20.30271 | 9003 ft | 300 kts | 98° |
| 2026-05-06 14:35 | 47.34597 | 20.33336 | 9004 ft | 300 kts | 98° |
| 2026-05-06 14:36 | 47.34387 | 20.36398 | 9002 ft | 300 kts | 98° |
| 2026-05-06 14:36 | 47.34174 | 20.39458 | 9001 ft | 300 kts | 98° |
| 2026-05-06 14:36 | 47.33962 | 20.42512 | 9002 ft | 300 kts | 98° |
| 2026-05-06 14:36 | 47.33750 | 20.45575 | 8999 ft | 300 kts | 98° |
| 2026-05-06 14:37 | 47.33539 | 20.48631 | 9004 ft | 300 kts | 98° |
| 2026-05-06 14:37 | 47.33328 | 20.51685 | 9002 ft | 300 kts | 98° |
| 2026-05-06 14:37 | 47.33118 | 20.54743 | 9003 ft | 300 kts | 98° |
| 2026-05-06 14:37 | 47.32907 | 20.57803 | 9003 ft | 300 kts | 98° |
| 2026-05-06 14:38 | 47.32696 | 20.60862 | 9002 ft | 300 kts | 98° |
| 2026-05-06 14:38 | 47.32487 | 20.63916 | 9004 ft | 300 kts | 98° |
| 2026-05-06 14:38 | 47.32274 | 20.66983 | 9061 ft | 302 kts | 98° |
| 2026-05-06 14:38 | 47.32056 | 20.70062 | 9779 ft | 304 kts | 98° |
| 2026-05-06 14:39 | 47.31829 | 20.73193 | 10229 ft | 315 kts | 98° |
| 2026-05-06 14:39 | 47.31592 | 20.76516 | 10371 ft | 337 kts | 97° |
| 2026-05-06 14:39 | 47.31368 | 20.80060 | 10496 ft | 358 kts | 97° |
| 2026-05-06 14:39 | 47.31153 | 20.83778 | 10861 ft | 368 kts | 96° |
| 2026-05-06 14:40 | 47.30945 | 20.87563 | 11429 ft | 372 kts | 96° |
| 2026-05-06 14:40 | 47.30735 | 20.91431 | 12049 ft | 375 kts | 96° |
| 2026-05-06 14:40 | 47.30522 | 20.95287 | 12648 ft | 379 kts | 96° |
| 2026-05-06 14:40 | 47.30301 | 20.99167 | 13253 ft | 382 kts | 96° |
| 2026-05-06 14:41 | 47.30073 | 21.03085 | 13850 ft | 386 kts | 96° |
| 2026-05-06 14:41 | 47.29839 | 21.07035 | 14394 ft | 389 kts | 96° |
| 2026-05-06 14:41 | 47.29600 | 21.11018 | 14945 ft | 391 kts | 97° |
| 2026-05-06 14:41 | 47.29355 | 21.15027 | 15491 ft | 395 kts | 97° |
| 2026-05-06 14:42 | 47.29105 | 21.19076 | 15893 ft | 403 kts | 97° |
| 2026-05-06 14:42 | 47.28843 | 21.23270 | 16021 ft | 418 kts | 97° |
| 2026-05-06 14:42 | 47.28572 | 21.27602 | 16141 ft | 432 kts | 97° |
| 2026-05-06 14:42 | 47.28294 | 21.32076 | 16292 ft | 444 kts | 96° |
| 2026-05-06 14:43 | 47.28015 | 21.36638 | 16626 ft | 450 kts | 96° |
| 2026-05-06 14:43 | 47.27734 | 21.41237 | 17171 ft | 450 kts | 96° |
| 2026-05-06 14:43 | 47.27450 | 21.45821 | 17777 ft | 449 kts | 97° |
| 2026-05-06 14:43 | 47.27163 | 21.50390 | 18371 ft | 448 kts | 97° |
| 2026-05-06 14:44 | 47.26870 | 21.54968 | 18741 ft | 452 kts | 97° |
| 2026-05-06 14:44 | 47.26568 | 21.59630 | 18859 ft | 462 kts | 97° |
| 2026-05-06 14:44 | 47.26258 | 21.64381 | 19022 ft | 470 kts | 97° |
| 2026-05-06 14:45 | 47.25628 | 21.73977 | 19899 ft | 471 kts | 97° |
| 2026-05-06 14:45 | 47.25312 | 21.78763 | 20404 ft | 470 kts | 96° |
| 2026-05-06 14:45 | 47.24980 | 21.83544 | 20811 ft | 470 kts | 99° |
| 2026-05-06 14:45 | 47.24276 | 21.88228 | 20927 ft | 468 kts | 109° |
| 2026-05-06 14:46 | 47.23176 | 21.92719 | 20949 ft | 467 kts | 111° |
| 2026-05-06 14:46 | 47.22052 | 21.97196 | 20947 ft | 467 kts | 111° |
| 2026-05-06 14:46 | 47.20926 | 22.01671 | 20942 ft | 467 kts | 111° |
| 2026-05-06 14:46 | 47.19801 | 22.06149 | 20942 ft | 467 kts | 111° |
| 2026-05-06 14:47 | 47.18663 | 22.10686 | 20944 ft | 467 kts | 111° |
| 2026-05-06 14:47 | 47.17539 | 22.15165 | 20946 ft | 467 kts | 111° |
| 2026-05-06 14:47 | 47.16418 | 22.19628 | 20946 ft | 467 kts | 111° |
| 2026-05-06 14:47 | 47.15287 | 22.24110 | 20951 ft | 467 kts | 111° |
| 2026-05-06 14:48 | 47.14158 | 22.28579 | 20952 ft | 468 kts | 111° |
| 2026-05-06 14:48 | 47.13026 | 22.33061 | 20953 ft | 468 kts | 111° |
| 2026-05-06 14:48 | 47.11890 | 22.37549 | 20953 ft | 468 kts | 111° |
| 2026-05-06 14:48 | 47.10751 | 22.42029 | 20959 ft | 469 kts | 111° |
| 2026-05-06 14:49 | 47.09604 | 22.46508 | 20957 ft | 469 kts | 112° |
| 2026-05-06 14:49 | 47.08456 | 22.50984 | 20957 ft | 469 kts | 112° |
| 2026-05-06 14:49 | 47.07305 | 22.55472 | 20958 ft | 469 kts | 112° |
| 2026-05-06 14:49 | 47.06157 | 22.59941 | 20959 ft | 469 kts | 112° |
| 2026-05-06 14:50 | 47.05007 | 22.64417 | 20960 ft | 469 kts | 112° |
| 2026-05-06 14:50 | 47.03856 | 22.68887 | 20957 ft | 469 kts | 112° |
| 2026-05-06 14:50 | 47.02703 | 22.73359 | 20955 ft | 469 kts | 112° |
| 2026-05-06 14:50 | 47.01547 | 22.77833 | 20954 ft | 469 kts | 112° |
| 2026-05-06 14:51 | 47.00391 | 22.82294 | 20956 ft | 469 kts | 112° |
| 2026-05-06 14:51 | 46.99248 | 22.86768 | 20956 ft | 469 kts | 110° |
| 2026-05-06 14:51 | 46.98210 | 22.91285 | 20949 ft | 469 kts | 109° |
| 2026-05-06 14:51 | 46.97263 | 22.95853 | 20955 ft | 469 kts | 107° |
| 2026-05-06 14:52 | 46.96368 | 23.00440 | 20953 ft | 468 kts | 107° |
| 2026-05-06 14:52 | 46.95490 | 23.05022 | 20950 ft | 468 kts | 107° |
| 2026-05-06 14:52 | 46.94597 | 23.09608 | 20944 ft | 468 kts | 107° |
| 2026-05-06 14:52 | 46.93681 | 23.14168 | 20939 ft | 467 kts | 108° |
| 2026-05-06 14:53 | 46.92742 | 23.18711 | 20942 ft | 466 kts | 108° |
| 2026-05-06 14:53 | 46.91790 | 23.23238 | 20938 ft | 466 kts | 108° |
| 2026-05-06 14:53 | 46.90834 | 23.27764 | 20926 ft | 465 kts | 108° |
| 2026-05-06 14:53 | 46.89878 | 23.32281 | 20929 ft | 465 kts | 108° |
| 2026-05-06 14:54 | 46.88923 | 23.36799 | 20927 ft | 465 kts | 108° |
| 2026-05-06 14:54 | 46.87957 | 23.41369 | 20926 ft | 465 kts | 108° |
| 2026-05-06 14:54 | 46.87004 | 23.45885 | 20922 ft | 465 kts | 108° |
| 2026-05-06 14:54 | 46.86054 | 23.50382 | 20917 ft | 465 kts | 108° |
| 2026-05-06 14:55 | 46.85099 | 23.54897 | 20921 ft | 465 kts | 108° |
| 2026-05-06 14:55 | 46.84143 | 23.59402 | 20925 ft | 465 kts | 108° |
| 2026-05-06 14:55 | 46.83182 | 23.63915 | 20921 ft | 464 kts | 108° |
| 2026-05-06 14:55 | 46.82223 | 23.68415 | 20920 ft | 464 kts | 108° |
| 2026-05-06 14:56 | 46.81262 | 23.72917 | 20920 ft | 464 kts | 109° |
| 2026-05-06 14:56 | 46.79953 | 23.77193 | 20878 ft | 462 kts | 123° |
| 2026-05-06 14:56 | 46.77902 | 23.80715 | 20489 ft | 450 kts | 142° |
| 2026-05-06 14:56 | 46.75390 | 23.83302 | 20212 ft | 434 kts | 148° |
| 2026-05-06 14:57 | 46.72903 | 23.85725 | 19689 ft | 428 kts | 148° |
| 2026-05-06 14:57 | 46.70442 | 23.88127 | 19133 ft | 424 kts | 148° |
| 2026-05-06 14:57 | 46.68005 | 23.90513 | 18575 ft | 420 kts | 147° |
| 2026-05-06 14:57 | 46.65593 | 23.92876 | 18005 ft | 416 kts | 148° |
| 2026-05-06 14:58 | 46.63202 | 23.95221 | 17431 ft | 412 kts | 147° |
| 2026-05-06 14:58 | 46.60837 | 23.97542 | 16908 ft | 408 kts | 147° |
| 2026-05-06 14:58 | 46.59280 | 23.99069 | 16567 ft | 406 kts | 147° |
| 2026-05-06 14:59 | 46.57472 | 24.00828 | 16100 ft | 399 kts | 148° |
| 2026-05-06 14:59 | 46.55195 | 24.03042 | 14994 ft | 390 kts | 148° |
| 2026-05-06 14:59 | 46.52924 | 24.05115 | 13885 ft | 381 kts | 154° |
| 2026-05-06 14:59 | 46.50498 | 24.06572 | 12841 ft | 375 kts | 165° |
| 2026-05-06 15:00 | 46.47958 | 24.07186 | 11826 ft | 368 kts | 180° |
| 2026-05-06 15:00 | 46.45455 | 24.06660 | 10861 ft | 362 kts | 199° |
| 2026-05-06 15:00 | 46.43239 | 24.05013 | 9932 ft | 357 kts | 217° |
| 2026-05-06 15:00 | 46.41506 | 24.02505 | 8957 ft | 348 kts | 233° |
| 2026-05-06 15:01 | 46.40367 | 23.99492 | 8033 ft | 337 kts | 249° |
| 2026-05-06 15:01 | 46.39868 | 23.96233 | 7543 ft | 317 kts | 264° |
| 2026-05-06 15:01 | 46.39939 | 23.93181 | 7393 ft | 291 kts | 277° |
| 2026-05-06 15:01 | 46.40451 | 23.90445 | 7372 ft | 279 kts | 290° |
| 2026-05-06 15:02 | 46.41360 | 23.87948 | 7196 ft | 284 kts | 303° |
| 2026-05-06 15:02 | 46.42673 | 23.85821 | 6910 ft | 283 kts | 318° |
| 2026-05-06 15:02 | 46.44265 | 23.84154 | 6611 ft | 282 kts | 326° |
| 2026-05-06 15:02 | 46.45951 | 23.82722 | 6322 ft | 280 kts | 329° |
| 2026-05-06 15:03 | 46.47669 | 23.81399 | 6023 ft | 279 kts | 331° |
| 2026-05-06 15:03 | 46.49389 | 23.80110 | 5725 ft | 278 kts | 331° |
| 2026-05-06 15:03 | 46.51114 | 23.78845 | 5428 ft | 278 kts | 336° |
| 2026-05-06 15:03 | 46.52990 | 23.78282 | 5128 ft | 276 kts | 1° |
| 2026-05-06 15:04 | 46.54845 | 23.78848 | 4865 ft | 272 kts | 26° |
| 2026-05-06 15:04 | 46.56360 | 23.80400 | 4615 ft | 265 kts | 50° |
| 2026-05-06 15:04 | 46.57309 | 23.82629 | 4364 ft | 257 kts | 73° |
| 2026-05-06 15:04 | 46.57594 | 23.85140 | 4110 ft | 250 kts | 96° |
| 2026-05-06 15:05 | 46.57242 | 23.87561 | 3867 ft | 242 kts | 113° |
| 2026-05-06 15:05 | 46.56664 | 23.89858 | 3619 ft | 241 kts | 112° |
| 2026-05-06 15:05 | 46.56107 | 23.92135 | 3501 ft | 238 kts | 113° |
| 2026-05-06 15:05 | 46.55557 | 23.94398 | 3501 ft | 237 kts | 112° |
| 2026-05-06 15:06 | 46.55003 | 23.96672 | 3506 ft | 240 kts | 112° |
| 2026-05-06 15:06 | 46.54445 | 23.98959 | 3518 ft | 239 kts | 112° |
| 2026-05-06 15:06 | 46.53791 | 24.01163 | 3509 ft | 237 kts | 121° |
| 2026-05-06 15:06 | 46.52860 | 24.03135 | 3516 ft | 237 kts | 133° |
| 2026-05-06 15:07 | 46.52108 | 24.04274 | 3517 ft | 235 kts | 140° |
| 2026-05-06 15:07 | 46.50793 | 24.05707 | 3517 ft | 233 kts | 150° |
| 2026-05-06 15:07 | 46.49346 | 24.06727 | 3515 ft | 231 kts | 161° |
| 2026-05-06 15:07 | 46.47803 | 24.07404 | 3521 ft | 232 kts | 165° |
| 2026-05-06 15:08 | 46.46245 | 24.08050 | 3517 ft | 234 kts | 165° |
| 2026-05-06 15:08 | 46.44716 | 24.08707 | 3536 ft | 225 kts | 160° |
| 2026-05-06 15:08 | 46.43389 | 24.09817 | 3523 ft | 221 kts | 141° |
| 2026-05-06 15:08 | 46.42389 | 24.11503 | 3516 ft | 222 kts | 122° |
| 2026-05-06 15:09 | 46.41835 | 24.13584 | 3554 ft | 220 kts | 104° |
| 2026-05-06 15:09 | 46.41789 | 24.15704 | 3524 ft | 202 kts | 84° |
| 2026-05-06 15:09 | 46.42115 | 24.17590 | 3520 ft | 185 kts | 76° |
| 2026-05-06 15:09 | 46.42460 | 24.19328 | 3520 ft | 177 kts | 76° |
| 2026-05-06 15:10 | 46.42798 | 24.21041 | 3482 ft | 176 kts | 77° |
| 2026-05-06 15:10 | 46.43135 | 24.22745 | 3338 ft | 175 kts | 76° |
| 2026-05-06 15:10 | 46.43468 | 24.24431 | 3125 ft | 174 kts | 76° |
| 2026-05-06 15:10 | 46.43800 | 24.26115 | 2900 ft | 173 kts | 77° |
| 2026-05-06 15:11 | 46.44129 | 24.27789 | 2690 ft | 172 kts | 76° |
| 2026-05-06 15:11 | 46.44457 | 24.29452 | 2479 ft | 171 kts | 77° |
| 2026-05-06 15:11 | 46.44770 | 24.31047 | 2243 ft | 162 kts | 75° |
| 2026-05-06 15:11 | 46.45078 | 24.32606 | 2050 ft | 160 kts | 76° |
| 2026-05-06 15:12 | 46.45381 | 24.34158 | 1830 ft | 159 kts | 75° |
| 2026-05-06 15:12 | 46.45686 | 24.35703 | 1642 ft | 159 kts | 74° |
| 2026-05-06 15:12 | 46.45992 | 24.37243 | 1431 ft | 160 kts | 73° |
| 2026-05-06 15:12 | 46.46300 | 24.38799 | 1186 ft | 160 kts | 74° |
| 2026-05-06 15:13 | 46.46598 | 24.40351 | 985 ft | 157 kts | 74° |
| 2026-05-06 15:13 | 46.46835 | 24.41552 | 976 ft | 82 kts | 74° |
| 2026-05-06 15:13 | 46.46920 | 24.41984 | 977 ft | 27 kts | 74° |
| 2026-05-06 15:13 | 46.46954 | 24.42214 | 979 ft | 12 kts | 104° |
| 2026-05-06 15:14 | 46.46941 | 24.42232 | 973 ft | 0 kts | 160° |
| 2026-05-06 15:14 | 46.46914 | 24.42249 | 978 ft | 9 kts | 161° |
| 2026-05-06 15:14 | 46.46843 | 24.42309 | 975 ft | 13 kts | 133° |
| 2026-05-06 15:14 | 46.46776 | 24.42286 | 980 ft | 10 kts | 237° |
| 2026-05-06 15:15 | 46.46765 | 24.42252 | 976 ft | 7 kts | 250° |
| 2026-05-06 15:15 | 46.46765 | 24.42221 | 980 ft | 0 kts | 280° |